Time;durP1;ratioP1;P1;durP2;ratioP2;P2;SDS_P1;SDS_P2;PMS_P1;PMS_P2;Temp;Humidity;BMP_temperature;BMP_pressure;BME280_temperature;BME280_humidity;BME280_pressure;Samples;Min_cycle;Max_cycle;Signal;HPM_P1;HPM_P2
2022/09/28 00:00:32;;;;;;;11.05;4.45;;;8.30;99.90;;;;;;4935234;29;20048;-90
2022/09/28 00:02:58;;;;;;;9.32;4.78;;;8.30;99.90;;;;;;4935006;29;20058;-90
2022/09/28 00:05:25;;;;;;;9.75;4.57;;;8.30;99.90;;;;;;4934999;29;20055;-89
2022/09/28 00:07:55;;;;;;;11.07;4.82;;;8.30;99.90;;;;;;4935307;29;20060;-89
2022/09/28 00:10:24;;;;;;;8.70;5.00;;;8.30;99.90;;;;;;4934990;29;20099;-89
2022/09/28 00:12:51;;;;;;;8.90;5.18;;;8.30;99.90;;;;;;4934760;29;20062;-89
2022/09/28 00:15:17;;;;;;;7.43;4.72;;;8.30;99.90;;;;;;4935093;29;20135;-88
2022/09/28 00:17:45;;;;;;;8.43;5.10;;;8.30;99.90;;;;;;4935411;29;20130;-89
2022/09/28 00:20:11;;;;;;;7.78;5.10;;;8.30;99.90;;;;;;4934936;29;20044;-90
2022/09/28 00:22:37;;;;;;;9.77;4.93;;;8.30;99.90;;;;;;4934909;29;20051;-89
2022/09/28 00:25:05;;;;;;;9.82;5.25;;;8.30;99.90;;;;;;4936298;29;20075;-89
2022/09/28 00:27:31;;;;;;;9.13;4.70;;;8.30;99.90;;;;;;4935189;29;20098;-89
2022/09/28 00:29:57;;;;;;;10.00;5.50;;;8.30;99.90;;;;;;4936084;29;20431;-89
2022/09/28 00:32:23;;;;;;;9.15;4.80;;;8.20;99.90;;;;;;4936203;29;20151;-88
2022/09/28 00:34:50;;;;;;;10.10;5.35;;;8.20;99.90;;;;;;4936171;29;20075;-89
2022/09/28 00:37:20;;;;;;;7.57;4.43;;;8.30;99.90;;;;;;4935043;29;20043;-89
2022/09/28 00:39:47;;;;;;;9.82;5.32;;;8.30;99.90;;;;;;4934803;29;20052;-89
2022/09/28 00:42:24;;;;;;;10.43;5.80;;;8.20;99.90;;;;;;4934979;29;20098;-89
2022/09/28 00:44:57;;;;;;;8.63;5.60;;;8.30;99.90;;;;;;4935034;29;20071;-89
2022/09/28 00:47:36;;;;;;;;;;;8.30;99.90;;;;;;4936201;29;20460;-89
2022/09/28 00:50:05;;;;;;;10.73;5.88;;;8.30;99.90;;;;;;4934498;29;19970;-90
2022/09/28 00:53:00;;;;;;;11.73;6.45;;;8.20;99.90;;;;;;4934808;29;20048;-89
2022/09/28 00:55:37;;;;;;;12.55;6.25;;;8.20;99.90;;;;;;4931499;29;20135;-87
2022/09/28 00:58:06;;;;;;;12.50;6.57;;;8.20;99.90;;;;;;4938401;29;20447;-88
2022/09/28 01:00:32;;;;;;;11.07;5.70;;;8.20;99.90;;;;;;4938398;29;20043;-87
2022/09/28 01:03:00;;;;;;;10.50;6.75;;;8.20;99.90;;;;;;4938148;29;20400;-88
2022/09/28 01:05:26;;;;;;;11.63;6.80;;;8.20;99.90;;;;;;4937681;29;20039;-89
2022/09/28 01:07:55;;;;;;;11.05;6.25;;;8.20;99.90;;;;;;4939095;29;20496;-90
2022/09/28 01:10:21;;;;;;;11.70;5.93;;;8.20;99.90;;;;;;4939432;29;20063;-89
2022/09/28 01:12:47;;;;;;;11.15;5.55;;;8.20;99.90;;;;;;4937930;29;20090;-91
2022/09/28 01:15:14;;;;;;;14.30;6.82;;;8.10;99.90;;;;;;4938112;29;20079;-91
2022/09/28 01:18:04;;;;;;;11.70;6.05;;;8.20;99.90;;;;;;4938252;29;20087;-90
2022/09/28 01:20:50;;;;;;;11.13;6.60;;;8.20;99.90;;;;;;4937999;29;20563;-89
2022/09/28 01:23:39;;;;;;;11.93;6.28;;;8.20;99.90;;;;;;4938001;29;20055;-89
2022/09/28 01:26:24;;;;;;;10.38;6.00;;;8.20;99.90;;;;;;4937851;29;20083;-89
2022/09/28 01:29:08;;;;;;;10.52;6.80;;;8.20;99.90;;;;;;4937808;29;20055;-89
2022/09/28 01:31:37;;;;;;;9.93;6.47;;;8.20;99.90;;;;;;4937834;29;20051;-89
2022/09/28 01:34:15;;;;;;;11.63;6.93;;;8.20;99.90;;;;;;4937876;29;20044;-89
2022/09/28 01:36:53;;;;;;;11.20;7.03;;;8.20;99.90;;;;;;4937634;29;20047;-89
2022/09/28 01:39:28;;;;;;;14.32;7.65;;;8.20;99.90;;;;;;4938848;29;20047;-89
2022/09/28 01:41:56;;;;;;;13.48;7.15;;;8.20;99.90;;;;;;4938747;29;20048;-90
2022/09/28 01:44:24;;;;;;;13.02;7.25;;;8.20;99.90;;;;;;4938771;29;20043;-89
2022/09/28 01:46:51;;;;;;;14.98;7.53;;;8.20;99.90;;;;;;4937672;29;20487;-89
2022/09/28 01:49:19;;;;;;;13.77;7.50;;;8.20;99.90;;;;;;4937565;29;20099;-88
2022/09/28 01:52:05;;;;;;;13.50;7.63;;;8.20;99.90;;;;;;4937110;29;20047;-88
2022/09/28 01:54:39;;;;;;;12.23;7.00;;;8.20;99.90;;;;;;4937420;29;20047;-88
2022/09/28 01:57:14;;;;;;;13.20;7.60;;;8.20;99.90;;;;;;4937201;29;20130;-88
2022/09/28 01:59:45;;;;;;;14.75;7.82;;;8.30;99.90;;;;;;4937052;29;20517;-87
2022/09/28 02:02:19;;;;;;;13.85;8.05;;;8.30;99.90;;;;;;4938428;29;20044;-87
2022/09/28 02:04:58;;;;;;;11.40;7.38;;;8.30;99.90;;;;;;4936961;29;20039;-86
2022/09/28 02:07:33;;;;;;;14.43;7.70;;;8.30;99.90;;;;;;4936909;29;20510;-86
2022/09/28 02:10:08;;;;;;;13.70;8.15;;;8.30;99.90;;;;;;4937172;29;20083;-86
2022/09/28 02:12:46;;;;;;;13.63;6.93;;;8.40;99.90;;;;;;4936694;29;20492;-86
2022/09/28 02:15:29;;;;;;;15.32;7.25;;;8.40;99.90;;;;;;4938166;29;20091;-86
2022/09/28 02:17:55;;;;;;;12.98;7.32;;;8.40;99.90;;;;;;4938062;29;20447;-86
2022/09/28 02:20:22;;;;;;;13.48;7.45;;;8.40;99.90;;;;;;4936780;29;20063;-86
2022/09/28 02:22:49;;;;;;;13.70;6.85;;;8.40;99.90;;;;;;4936577;29;20047;-85
2022/09/28 02:25:27;;;;;;;12.45;7.47;;;8.40;99.90;;;;;;4936571;29;20082;-85
2022/09/28 02:28:05;;;;;;;9.50;6.10;;;8.40;99.90;;;;;;4936629;29;20174;-85
2022/09/28 02:30:35;;;;;;;11.77;6.68;;;8.50;99.90;;;;;;4937802;29;20095;-84
2022/09/28 02:33:21;;;;;;;13.80;7.28;;;8.50;99.90;;;;;;4937673;29;20050;-84
2022/09/28 02:35:47;;;;;;;11.55;5.65;;;8.50;99.90;;;;;;4937725;29;20107;-85
2022/09/28 02:38:14;;;;;;;13.77;5.78;;;8.50;99.90;;;;;;4936540;29;20055;-85
2022/09/28 02:40:52;;;;;;;14.23;6.28;;;8.60;99.90;;;;;;4936593;29;20495;-84
2022/09/28 02:43:32;;;;;;;13.65;6.13;;;8.60;99.90;;;;;;4936257;29;20431;-84
2022/09/28 02:46:27;;;;;;;15.10;7.07;;;8.60;99.90;;;;;;4936060;29;20422;-83
2022/09/28 02:49:02;;;;;;;15.65;6.53;;;8.60;99.90;;;;;;4936460;29;20056;-85
2022/09/28 02:51:57;;;;;;;14.00;6.43;;;8.60;99.90;;;;;;4936503;29;20396;-85
2022/09/28 02:54:42;;;;;;;16.27;6.40;;;8.60;99.90;;;;;;4936256;29;20479;-85
2022/09/28 02:57:30;;;;;;;13.15;7.15;;;8.60;99.90;;;;;;4937547;29;20130;-85
2022/09/28 03:00:09;;;;;;;16.08;5.90;;;8.60;99.90;;;;;;4936064;29;20051;-85
2022/09/28 03:02:50;;;;;;;11.35;5.80;;;8.60;99.90;;;;;;4935872;29;20044;-85
2022/09/28 03:05:24;;;;;;;12.23;6.13;;;8.60;99.90;;;;;;4936138;29;20052;-86
2022/09/28 03:08:03;;;;;;;11.70;6.05;;;8.60;99.90;;;;;;4935891;29;20047;-86
2022/09/28 03:10:36;;;;;;;12.30;5.32;;;8.70;99.90;;;;;;4936754;29;20182;-86
2022/09/28 03:13:02;;;;;;;;;;;8.60;99.90;;;;;;4935978;29;20396;-86
2022/09/28 03:15:33;;;;;;;10.63;4.68;;;8.60;99.90;;;;;;4935702;29;20009;-86
2022/09/28 03:17:59;;;;;;;15.30;4.60;;;8.60;99.90;;;;;;4935038;29;20047;-85
2022/09/28 03:20:26;;;;;;;10.73;4.15;;;8.60;99.90;;;;;;4935937;29;20055;-85
2022/09/28 03:22:52;;;;;;;11.10;3.60;;;8.70;99.90;;;;;;4935644;29;20048;-86
2022/09/28 03:25:18;;;;;;;6.80;3.58;;;8.70;99.90;;;;;;4935605;29;20043;-86
2022/09/28 03:27:44;;;;;;;8.60;3.70;;;8.70;99.90;;;;;;4936823;29;20205;-86
2022/09/28 03:30:13;;;;;;;7.85;3.63;;;8.70;99.90;;;;;;4936711;29;20365;-87
2022/09/28 03:32:39;;;;;;;7.88;3.55;;;8.70;99.90;;;;;;4936730;29;20047;-85
2022/09/28 03:35:06;;;;;;;10.43;4.05;;;8.70;99.90;;;;;;4935422;29;20047;-86
2022/09/28 03:37:32;;;;;;;7.80;3.85;;;8.70;99.90;;;;;;4936690;29;20138;-86
2022/09/28 03:39:57;;;;;;;9.43;4.28;;;8.70;99.90;;;;;;4935149;29;20075;-86
2022/09/28 03:42:23;;;;;;;11.15;4.05;;;8.70;99.90;;;;;;4935196;29;20067;-86
2022/09/28 03:44:49;;;;;;;9.68;4.50;;;8.70;99.90;;;;;;4936631;29;20126;-86
2022/09/28 03:47:16;;;;;;;6.65;3.65;;;8.60;99.90;;;;;;4935566;29;20090;-86
2022/09/28 03:49:42;;;;;;;7.38;4.03;;;8.60;99.90;;;;;;4935406;29;20086;-86
2022/09/28 03:52:12;;;;;;;7.28;3.80;;;8.60;99.90;;;;;;4935532;29;20043;-85
2022/09/28 03:54:40;;;;;;;6.45;3.72;;;8.60;99.90;;;;;;4936295;29;20063;-85
2022/09/28 03:57:06;;;;;;;5.95;3.80;;;8.60;99.90;;;;;;4935166;29;20054;-86
2022/09/28 03:59:36;;;;;;;7.45;3.95;;;8.60;99.90;;;;;;4936496;29;20036;-86
2022/09/28 04:02:02;;;;;;;8.75;3.83;;;8.50;99.90;;;;;;4936418;29;20079;-86
2022/09/28 04:04:27;;;;;;;6.72;3.45;;;8.50;99.90;;;;;;4935176;29;20048;-86
2022/09/28 04:06:53;;;;;;;7.68;4.15;;;8.40;99.90;;;;;;4935355;29;20052;-87
2022/09/28 04:09:18;;;;;;;7.68;3.63;;;8.40;99.90;;;;;;4934787;29;20523;-87
2022/09/28 04:11:46;;;;;;;5.10;3.00;;;8.40;99.90;;;;;;4935043;29;20063;-87
2022/09/28 04:14:11;;;;;;;7.43;4.32;;;8.30;99.90;;;;;;4919188;29;20130;-87
2022/09/28 04:16:37;;;;;;;5.93;3.38;;;8.30;99.90;;;;;;4919443;29;20130;-87
2022/09/28 04:19:03;;;;;;;6.57;2.63;;;8.30;99.90;;;;;;4936249;29;20048;-88
2022/09/28 04:21:29;;;;;;;5.03;2.63;;;8.30;99.90;;;;;;4918920;29;20047;-87
2022/09/28 04:23:54;;;;;;;5.45;2.50;;;8.20;99.90;;;;;;4919120;29;20085;-88
2022/09/28 04:26:23;;;;;;;4.32;2.53;;;8.30;99.90;;;;;;4936422;29;20051;-88
2022/09/28 04:31:49;;;;;;;5.28;2.42;;;8.20;99.90;;;;;;4922880;29;20147;-87
2022/09/28 04:34:17;;;;;;;5.10;2.40;;;8.30;99.90;;;;;;4922771;29;20047;-87
2022/09/28 04:36:44;;;;;;;5.05;2.25;;;8.20;99.90;;;;;;4922713;29;20130;-88
2022/09/28 04:39:18;;;;;;;7.25;2.78;;;8.20;99.90;;;;;;4922731;29;20422;-88
2022/09/28 04:41:46;;;;;;;5.07;2.75;;;8.30;99.90;;;;;;4939819;29;20048;-88
2022/09/28 04:44:11;;;;;;;7.15;3.63;;;8.30;99.90;;;;;;4922739;29;20047;-88
2022/09/28 04:46:37;;;;;;;5.25;3.17;;;8.30;99.90;;;;;;4923390;29;20048;-88
2022/09/28 04:49:03;;;;;;;6.32;3.40;;;8.30;99.90;;;;;;4922480;29;20086;-88
2022/09/28 04:51:32;;;;;;;6.55;3.60;;;8.30;99.90;;;;;;4922300;29;20534;-88
2022/09/28 04:53:57;;;;;;;7.10;3.85;;;8.30;99.90;;;;;;4922641;29;20048;-88
2022/09/28 04:56:26;;;;;;;6.03;3.70;;;8.30;99.90;;;;;;4922685;29;20391;-88
2022/09/28 04:58:51;;;;;;;7.07;3.85;;;8.30;99.90;;;;;;4922330;29;20075;-87
2022/09/28 05:01:19;;;;;;;9.35;3.67;;;8.30;99.90;;;;;;4939362;29;20051;-88
2022/09/28 05:03:44;;;;;;;5.93;3.22;;;8.30;99.90;;;;;;4922163;29;20055;-87
2022/09/28 05:06:14;;;;;;;5.75;3.53;;;8.30;99.90;;;;;;4922427;29;20093;-88
2022/09/28 05:08:41;;;;;;;7.50;3.88;;;8.40;99.90;;;;;;4922482;29;20510;-87
2022/09/28 05:11:10;;;;;;;8.18;4.25;;;8.30;99.90;;;;;;4922155;29;20435;-88
2022/09/28 05:13:44;;;;;;;6.72;3.42;;;8.40;99.90;;;;;;4935817;29;20218;-88
2022/09/28 05:16:10;;;;;;;7.07;4.00;;;8.30;99.90;;;;;;4938969;29;20075;-87
2022/09/28 05:18:36;;;;;;;8.10;3.92;;;8.40;99.90;;;;;;4937901;29;20050;-87
2022/09/28 05:21:02;;;;;;;6.95;3.92;;;8.40;99.90;;;;;;4937858;29;20052;-87
2022/09/28 05:23:28;;;;;;;8.73;3.33;;;8.40;99.90;;;;;;4937967;29;20047;-87
2022/09/28 05:25:53;;;;;;;6.45;3.40;;;8.30;99.90;;;;;;4937664;29;20091;-87
2022/09/28 05:28:24;;;;;;;6.90;3.35;;;8.30;99.90;;;;;;4937171;29;20126;-87
2022/09/28 05:30:51;;;;;;;7.53;3.58;;;8.30;99.90;;;;;;4937406;29;20154;-88
2022/09/28 05:33:16;;;;;;;7.55;3.65;;;8.30;99.90;;;;;;4937368;29;20444;-87
2022/09/28 05:35:42;;;;;;;7.40;3.80;;;8.20;99.90;;;;;;4937719;29;20167;-87
2022/09/28 05:38:11;;;;;;;7.47;4.20;;;8.30;99.90;;;;;;4937353;29;20050;-88
2022/09/28 05:40:36;;;;;;;5.80;3.45;;;8.20;99.90;;;;;;4937870;29;20055;-88
2022/09/28 05:43:02;;;;;;;6.47;3.10;;;8.20;99.90;;;;;;4937487;29;20055;-88
2022/09/28 05:45:28;;;;;;;6.20;3.70;;;8.20;99.90;;;;;;4937172;29;20055;-88
2022/09/28 05:47:54;;;;;;;5.95;3.33;;;8.10;99.90;;;;;;4938577;29;20046;-89
2022/09/28 05:50:20;;;;;;;5.90;3.47;;;8.10;99.90;;;;;;4937003;29;20416;-88
2022/09/28 05:52:45;;;;;;;8.00;3.65;;;8.10;99.90;;;;;;4937044;29;20047;-88
2022/09/28 05:55:11;;;;;;;7.07;3.95;;;8.10;99.90;;;;;;4938168;29;20051;-88
2022/09/28 05:57:37;;;;;;;6.18;3.55;;;8.10;99.90;;;;;;4937215;29;20059;-87
2022/09/28 06:00:06;;;;;;;8.38;3.45;;;8.10;99.90;;;;;;4936876;29;20499;-88
2022/09/28 06:02:32;;;;;;;8.27;3.47;;;8.00;99.90;;;;;;4937157;29;20062;-88
2022/09/28 06:04:57;;;;;;;8.65;3.78;;;8.00;99.90;;;;;;4937951;29;20504;-88
2022/09/28 06:07:23;;;;;;;6.47;3.72;;;8.10;99.90;;;;;;4936744;29;20054;-89
2022/09/28 06:09:48;;;;;;;12.15;8.77;;;8.10;99.90;;;;;;4936585;29;20055;-88
2022/09/28 06:12:14;;;;;;;13.55;8.98;;;8.20;99.90;;;;;;4936719;29;20055;-91
2022/09/28 06:14:40;;;;;;;11.20;6.93;;;8.30;99.90;;;;;;4938138;29;20056;-90
2022/09/28 06:17:06;;;;;;;9.45;5.45;;;8.30;99.90;;;;;;4936944;29;20047;-90
2022/09/28 06:19:32;;;;;;;8.57;4.97;;;8.30;99.90;;;;;;4936836;29;20051;-91
2022/09/28 06:21:57;;;;;;;9.50;5.50;;;8.40;99.90;;;;;;4936882;29;20051;-90
2022/09/28 06:24:23;;;;;;;9.85;4.50;;;8.50;99.90;;;;;;4936829;29;20040;-92
2022/09/28 06:26:49;;;;;;;8.85;4.55;;;8.60;99.90;;;;;;4936511;29;20408;-90
2022/09/28 06:29:17;;;;;;;9.40;5.03;;;8.60;99.90;;;;;;4936413;29;20044;-90
2022/09/28 06:31:46;;;;;;;9.65;4.80;;;8.70;99.90;;;;;;4936667;29;20407;-89
2022/09/28 06:34:12;;;;;;;9.52;5.20;;;8.80;99.90;;;;;;4937638;29;20488;-89
2022/09/28 06:36:39;;;;;;;7.93;5.10;;;8.80;99.90;;;;;;4936767;29;20067;-92
2022/09/28 06:39:05;;;;;;;10.60;5.90;;;8.90;99.90;;;;;;4936441;29;20090;-92
2022/09/28 06:41:30;;;;;;;10.77;6.30;;;9.00;99.90;;;;;;4936495;29;20044;-90
2022/09/28 06:44:00;;;;;;;9.95;5.15;;;9.00;99.90;;;;;;4936261;29;20074;-92
2022/09/28 06:46:26;;;;;;;9.13;5.30;;;9.10;99.90;;;;;;4937478;29;20051;-92
2022/09/28 06:48:53;;;;;;;10.05;5.20;;;9.10;99.90;;;;;;4942341;29;20043;-93
2022/09/28 06:51:18;;;;;;;9.25;5.15;;;9.30;99.90;;;;;;4938149;29;20404;-93
2022/09/28 06:53:44;;;;;;;8.98;4.95;;;9.30;99.90;;;;;;4937705;29;20043;-93
2022/09/28 06:56:10;;;;;;;9.60;5.07;;;9.30;99.90;;;;;;4936683;29;20106;-91
2022/09/28 06:58:36;;;;;;;10.13;4.97;;;9.30;99.90;;;;;;4936764;29;20090;-92
2022/09/28 07:01:02;;;;;;;8.88;4.55;;;9.40;99.90;;;;;;4937201;29;20047;-93
2022/09/28 07:03:28;;;;;;;8.38;4.80;;;9.40;99.90;;;;;;4936610;29;20056;-90
2022/09/28 07:05:55;;;;;;;9.90;4.60;;;9.50;99.90;;;;;;4935808;29;20555;-91
2022/09/28 07:08:24;;;;;;;8.93;4.65;;;9.60;99.90;;;;;;4933893;29;21644;-87
2022/09/28 07:10:55;;;;;;;7.78;4.43;;;9.60;99.90;;;;;;4925520;29;20056;-84
2022/09/28 07:13:22;;;;;;;7.72;4.43;;;9.70;99.90;;;;;;4917600;29;20104;-88
2022/09/28 07:15:52;;;;;;;8.13;4.53;;;9.80;99.90;;;;;;4900499;29;20412;-89
2022/09/28 07:18:17;;;;;;;7.43;4.05;;;9.90;99.90;;;;;;4917884;29;20047;-88
2022/09/28 07:20:43;;;;;;;8.15;4.03;;;9.90;99.90;;;;;;4905172;29;20048;-87
2022/09/28 07:23:09;;;;;;;10.23;3.95;;;9.90;99.90;;;;;;4919437;29;20071;-88
2022/09/28 07:25:35;;;;;;;8.60;4.03;;;10.00;99.90;;;;;;4936454;29;20047;-87
2022/09/28 07:28:02;;;;;;;7.18;3.83;;;10.10;99.90;;;;;;4919522;29;20048;-86
2022/09/28 07:30:33;;;;;;;8.20;3.85;;;10.20;99.90;;;;;;4919194;29;20047;-91
2022/09/28 07:33:07;;;;;;;7.97;4.03;;;10.20;99.90;;;;;;4919327;29;20054;-88
2022/09/28 07:35:33;;;;;;;6.05;3.30;;;10.30;99.90;;;;;;4919270;29;20063;-85
2022/09/28 07:38:01;;;;;;;10.10;3.42;;;10.30;99.90;;;;;;4919204;29;20066;-87
2022/09/28 07:43:12;;;;;;;6.93;3.63;;;10.20;99.90;;;;;;4919414;29;20078;-86
2022/09/28 07:45:38;;;;;;;6.35;3.72;;;10.30;99.90;;;;;;4919231;29;20488;-85
2022/09/28 07:48:04;;;;;;;6.35;3.78;;;10.40;99.90;;;;;;4919392;29;20486;-83
2022/09/28 07:50:30;;;;;;;9.52;3.85;;;10.50;99.90;;;;;;4936022;29;20091;-87
2022/09/28 07:52:57;;;;;;;7.55;3.88;;;10.60;99.90;;;;;;4936209;29;20040;-88
2022/09/28 07:55:23;;;;;;;6.28;3.65;;;10.60;99.90;;;;;;4918810;29;20040;-90
2022/09/28 07:57:59;;;;;;;6.70;3.72;;;10.60;99.90;;;;;;4936018;29;20098;-87
2022/09/28 08:00:31;;;;;;;7.68;3.65;;;10.60;99.90;;;;;;4919282;29;20058;-87
2022/09/28 08:03:00;;;;;;;6.97;4.28;;;10.70;99.90;;;;;;4918912;29;20086;-85
2022/09/28 08:05:30;;;;;;;6.47;3.90;;;10.90;99.90;;;;;;4918875;29;20099;-85
2022/09/28 08:07:58;;;;;;;5.45;3.13;;;11.00;99.90;;;;;;4918901;29;20051;-84
2022/09/28 08:10:27;;;;;;;5.25;3.72;;;11.00;99.90;;;;;;4918109;29;20047;-85
2022/09/28 08:12:58;;;;;;;5.60;3.42;;;11.10;99.90;;;;;;4926892;29;20135;-84
2022/09/28 08:15:24;;;;;;;7.50;3.22;;;11.20;99.90;;;;;;4934966;29;20134;-84
2022/09/28 08:17:49;;;;;;;5.70;3.05;;;11.30;99.90;;;;;;4934347;29;20506;-87
2022/09/28 08:23:07;;;;;;;5.65;2.80;;;11.40;99.90;;;;;;4934368;29;20542;-87
2022/09/28 08:25:35;;;;;;;6.40;2.95;;;11.50;99.90;;;;;;4935820;29;20051;-85
2022/09/28 08:28:01;;;;;;;5.07;2.50;;;11.60;99.90;;;;;;4935402;29;20377;-86
2022/09/28 08:30:27;;;;;;;6.88;2.95;;;11.60;99.90;;;;;;4934654;29;20488;-85
2022/09/28 08:32:52;;;;;;;5.75;2.40;;;11.80;99.90;;;;;;4935729;29;20478;-86
2022/09/28 08:35:18;;;;;;;6.63;2.75;;;11.80;99.90;;;;;;4934660;29;20042;-86
2022/09/28 08:37:49;;;;;;;6.78;2.65;;;11.90;99.90;;;;;;4934410;29;20047;-86
2022/09/28 08:40:19;;;;;;;5.72;2.42;;;12.00;99.90;;;;;;4934274;29;20131;-86
2022/09/28 08:42:44;;;;;;;4.93;2.20;;;12.10;99.90;;;;;;4934627;29;20492;-85
2022/09/28 08:45:21;;;;;;;7.10;2.42;;;12.20;99.90;;;;;;4935776;29;20098;-85
2022/09/28 08:50:46;;;;;;;7.15;0.90;;;12.30;99.90;;;;;;4935422;29;20131;-86
2022/09/28 08:53:31;;;;;;;5.35;0.85;;;12.40;99.90;;;;;;4934629;29;20103;-85
2022/09/28 08:56:01;;;;;;;4.38;0.47;;;12.40;99.90;;;;;;4934557;29;20427;-85
2022/09/28 08:58:34;;;;;;;2.40;0.40;;;12.50;99.90;;;;;;4934281;29;20051;-86
2022/09/28 09:01:01;;;;;;;3.22;0.50;;;12.50;99.90;;;;;;4936000;29;20067;-86
2022/09/28 09:03:34;;;;;;;1.60;0.30;;;12.70;99.90;;;;;;4936015;29;20138;-85
2022/09/28 09:06:44;;;;;;;2.38;0.30;;;12.80;99.90;;;;;;4936004;29;20043;-85
2022/09/28 09:09:30;;;;;;;3.60;0.70;;;12.90;99.90;;;;;;4934415;29;20047;-85
2022/09/28 09:12:07;;;;;;;2.53;0.30;;;13.00;99.90;;;;;;4933583;29;20139;-86
2022/09/28 09:15:03;;;;;;;2.85;0.40;;;13.10;99.90;;;;;;4933993;29;20507;-86
2022/09/28 09:17:55;;;;;;;3.90;0.30;;;13.10;99.90;;;;;;4937806;29;20048;-85
2022/09/28 09:20:44;;;;;;;1.80;0.20;;;13.20;99.90;;;;;;4938948;29;20040;-85
2022/09/28 09:23:19;;;;;;;2.55;0.20;;;13.30;99.90;;;;;;4938687;29;20499;-85
2022/09/28 09:25:53;;;;;;;0.80;0.30;;;13.30;99.90;;;;;;4937320;29;20043;-85
2022/09/28 09:28:35;;;;;;;2.30;0.30;;;13.30;99.90;;;;;;4937297;29;20051;-85
2022/09/28 09:31:32;;;;;;;4.18;0.20;;;13.40;99.90;;;;;;4937243;29;20047;-85
2022/09/28 09:34:03;;;;;;;2.67;0.20;;;13.50;99.90;;;;;;4937233;29;20055;-85
2022/09/28 09:37:00;;;;;;;1.10;0.25;;;13.50;99.90;;;;;;4937500;29;20126;-85
2022/09/28 09:39:58;;;;;;;4.22;0.50;;;13.60;99.90;;;;;;4937223;29;20063;-85
2022/09/28 09:42:55;;;;;;;3.65;0.40;;;13.60;99.90;;;;;;4937158;29;20048;-84
2022/09/28 09:46:04;;;;;;;1.88;0.28;;;13.80;99.90;;;;;;4937073;29;20455;-84
2022/09/28 09:48:34;;;;;;;3.33;0.73;;;13.80;99.90;;;;;;4937045;29;20508;-85
2022/09/28 09:51:07;;;;;;;2.28;0.25;;;13.90;99.90;;;;;;4936632;29;20542;-86
2022/09/28 09:53:41;;;;;;;4.20;0.47;;;14.00;99.90;;;;;;4937060;29;20176;-86
2022/09/28 09:56:26;;;;;;;3.33;0.22;;;14.10;99.90;;;;;;4937616;29;20043;-85
2022/09/28 09:58:58;;;;;;;2.65;0.30;;;14.20;99.90;;;;;;4935405;29;20079;-86
2022/09/28 10:01:32;;;;;;;3.45;0.35;;;14.20;99.90;;;;;;4936622;29;20082;-85
2022/09/28 10:03:58;;;;;;;1.45;0.40;;;14.10;99.90;;;;;;4936368;29;20047;-86
2022/09/28 10:06:28;;;;;;;0.30;0.15;;;14.20;99.90;;;;;;4936715;29;20066;-85
2022/09/28 10:09:03;;;;;;;3.05;0.30;;;14.20;99.90;;;;;;4936118;29;20048;-86
2022/09/28 10:11:35;;;;;;;3.90;0.28;;;14.30;99.90;;;;;;4934300;29;20051;-84
2022/09/28 10:14:02;;;;;;;3.70;0.50;;;14.30;99.90;;;;;;4919775;29;20106;-85
2022/09/28 10:16:31;;;;;;;3.40;0.40;;;14.50;99.90;;;;;;4919779;29;20126;-86
2022/09/28 10:19:01;;;;;;;5.35;0.43;;;14.60;99.90;;;;;;4920692;29;20050;-86
2022/09/28 10:21:27;;;;;;;3.45;0.32;;;14.70;99.90;;;;;;4919836;29;20047;-87
2022/09/28 10:23:58;;;;;;;2.45;0.32;;;14.70;99.90;;;;;;4920451;29;20535;-86
2022/09/28 10:26:37;;;;;;;5.43;0.55;;;14.80;99.90;;;;;;4920126;29;20044;-86
2022/09/28 10:29:11;;;;;;;3.13;0.30;;;14.80;99.90;;;;;;4920759;29;20052;-87
2022/09/28 10:31:42;;;;;;;1.48;0.20;;;14.80;99.90;;;;;;4920386;29;20458;-86
2022/09/28 10:34:13;;;;;;;3.90;0.30;;;15.00;99.90;;;;;;4920526;29;20055;-86
2022/09/28 10:36:46;;;;;;;2.97;0.30;;;15.10;99.90;;;;;;4937297;29;20098;-86
2022/09/28 10:39:40;;;;;;;1.10;0.15;;;15.20;99.90;;;;;;4920482;29;20048;-86
2022/09/28 10:42:10;;;;;;;2.95;0.63;;;15.30;99.90;;;;;;4920432;29;20062;-86
2022/09/28 10:44:52;;;;;;;3.28;0.40;;;15.50;99.90;;;;;;4920470;29;20388;-84
2022/09/28 10:47:20;;;;;;;3.42;0.15;;;15.70;99.90;;;;;;4937364;29;20095;-84
2022/09/28 10:49:49;;;;;;;2.88;0.30;;;15.80;99.90;;;;;;4919969;29;20072;-85
2022/09/28 10:52:35;;;;;;;3.40;0.30;;;15.70;99.90;;;;;;4919887;29;20118;-84
2022/09/28 10:55:02;;;;;;;0.98;0.10;;;15.90;99.90;;;;;;4920146;29;20070;-84
2022/09/28 10:57:33;;;;;;;1.70;0.20;;;16.10;99.90;;;;;;4920115;29;20071;-84
2022/09/28 11:00:00;;;;;;;2.70;0.28;;;16.20;99.90;;;;;;4920097;29;20087;-85
2022/09/28 11:02:29;;;;;;;1.42;0.20;;;16.20;99.90;;;;;;4919488;29;20047;-85
2022/09/28 11:05:01;;;;;;;3.33;0.30;;;16.10;99.90;;;;;;4919980;29;20054;-85
2022/09/28 11:07:32;;;;;;;2.20;0.10;;;16.10;99.90;;;;;;4919612;29;20050;-85
2022/09/28 11:09:59;;;;;;;0.82;0.20;;;16.10;99.90;;;;;;4921832;29;20051;-85
2022/09/28 11:12:35;;;;;;;3.85;0.40;;;16.00;99.90;;;;;;4923496;29;20051;-86
2022/09/28 11:15:04;;;;;;;3.58;0.22;;;16.00;99.90;;;;;;4935024;29;20059;-86
2022/09/28 11:17:32;;;;;;;2.65;0.35;;;16.10;99.90;;;;;;4936727;29;20040;-86
2022/09/28 11:20:24;;;;;;;2.22;0.30;;;16.20;99.90;;;;;;4940164;29;20047;-84
2022/09/28 11:22:51;;;;;;;2.08;0.35;;;16.40;99.90;;;;;;4944169;29;20047;-85
2022/09/28 11:25:19;;;;;;;4.15;0.43;;;16.50;99.90;;;;;;4944512;29;20396;-85
2022/09/28 11:27:51;;;;;;;2.38;0.13;;;16.50;99.90;;;;;;4934518;29;20054;-85
2022/09/28 11:30:32;;;;;;;3.92;0.30;;;16.60;99.90;;;;;;4933397;29;20059;-85
2022/09/28 11:33:05;;;;;;;4.38;0.60;;;16.50;99.90;;;;;;4935515;29;20051;-85
2022/09/28 11:35:43;;;;;;;3.15;0.15;;;16.50;99.90;;;;;;4935063;29;20055;-85
2022/09/28 11:38:32;;;;;;;2.05;0.20;;;16.60;99.90;;;;;;4934240;29;20380;-85
2022/09/28 11:41:31;;;;;;;2.40;0.20;;;16.60;99.90;;;;;;4935368;29;20398;-85
2022/09/28 11:44:11;;;;;;;4.40;0.30;;;16.40;99.90;;;;;;4935147;29;20059;-85
2022/09/28 11:46:56;;;;;;;3.08;0.70;;;16.50;99.90;;;;;;4935270;29;20094;-85
2022/09/28 11:49:30;;;;;;;3.20;0.40;;;16.40;99.90;;;;;;4934554;29;20526;-86
2022/09/28 11:52:02;;;;;;;2.45;0.65;;;16.40;99.90;;;;;;4936468;29;20056;-85
2022/09/28 11:54:53;;;;;;;1.55;0.63;;;16.40;99.90;;;;;;4935128;29;20075;-85
2022/09/28 11:57:29;;;;;;;1.17;0.20;;;16.40;99.90;;;;;;4934998;29;20056;-88
2022/09/28 12:00:27;;;;;;;0.80;0.10;;;16.60;99.90;;;;;;4932824;29;20043;-86
2022/09/28 12:03:23;;;;;;;2.08;0.30;;;16.70;99.90;;;;;;4933380;29;20051;-87
2022/09/28 12:05:51;;;;;;;1.75;0.40;;;16.70;99.90;;;;;;4934750;29;20055;-88
2022/09/28 12:08:28;;;;;;;0.93;0.30;;;16.70;99.90;;;;;;4934747;29;20055;-86
2022/09/28 12:11:00;;;;;;;3.58;0.95;;;16.70;99.90;;;;;;4934473;29;20059;-89
2022/09/28 12:13:28;;;;;;;3.97;0.87;;;16.70;99.90;;;;;;4934593;29;20056;-87
2022/09/28 12:16:01;;;;;;;3.00;0.40;;;16.60;99.90;;;;;;4935879;29;20139;-88
2022/09/28 12:18:40;;;;;;;3.15;0.43;;;16.60;99.90;;;;;;4934910;29;20514;-88
2022/09/28 12:21:32;;;;;;;2.65;1.00;;;16.50;99.90;;;;;;4934656;29;20062;-87
2022/09/28 12:24:18;;;;;;;3.03;0.35;;;16.70;99.90;;;;;;4934845;29;20051;-87
2022/09/28 12:26:57;;;;;;;1.63;0.40;;;16.70;99.90;;;;;;4934497;29;20488;-85
2022/09/28 12:29:31;;;;;;;4.38;0.40;;;16.60;99.90;;;;;;4934426;29;20059;-85
2022/09/28 12:32:16;;;;;;;5.43;0.30;;;16.60;99.90;;;;;;4934393;29;20051;-84
2022/09/28 12:34:42;;;;;;;1.60;0.20;;;16.70;99.90;;;;;;4934553;29;20480;-82
2022/09/28 12:37:32;;;;;;;1.67;0.28;;;16.50;99.90;;;;;;4935687;29;20055;-84
2022/09/28 12:40:22;;;;;;;1.17;0.35;;;16.30;99.90;;;;;;4935875;29;20135;-80
2022/09/28 12:43:06;;;;;;;1.70;0.20;;;16.30;99.90;;;;;;4935697;29;20082;-83
2022/09/28 12:45:39;;;;;;;3.78;0.60;;;16.40;99.90;;;;;;4934562;29;20047;-84
2022/09/28 12:48:26;;;;;;;3.00;0.30;;;16.50;99.90;;;;;;4934353;29;20385;-83
2022/09/28 12:50:58;;;;;;;3.55;0.40;;;16.50;99.90;;;;;;4937142;29;20130;-84
2022/09/28 12:53:37;;;;;;;5.40;0.95;;;16.40;99.90;;;;;;4937976;29;20048;-84
2022/09/28 12:56:28;;;;;;;3.42;0.55;;;16.40;99.90;;;;;;4939140;29;20506;-82
2022/09/28 12:59:21;;;;;;;1.98;0.35;;;16.50;99.90;;;;;;4937707;29;20048;-82
2022/09/28 13:02:19;;;;;;;0.90;0.30;;;16.40;99.90;;;;;;4938042;29;20095;-82
2022/09/28 13:05:03;;;;;;;1.55;0.30;;;16.50;99.90;;;;;;4938151;29;20065;-81
2022/09/28 13:07:59;;;;;;;2.10;0.15;;;16.60;99.90;;;;;;4937549;29;20498;-80
2022/09/28 13:10:39;;;;;;;2.70;0.30;;;16.60;99.90;;;;;;4937632;29;20058;-82
2022/09/28 13:13:15;;;;;;;2.35;0.10;;;16.50;99.90;;;;;;4937439;29;20130;-82
2022/09/28 13:16:07;;;;;;;0.50;0.10;;;16.50;99.90;;;;;;4937907;29;20048;-81
2022/09/28 13:18:52;;;;;;;3.72;0.30;;;16.40;99.90;;;;;;4938642;29;20052;-79
2022/09/28 13:21:51;;;;;;;1.45;0.30;;;16.40;99.90;;;;;;4938742;29;20175;-81
2022/09/28 13:24:26;;;;;;;2.13;0.30;;;16.40;99.90;;;;;;4937534;29;20495;-80
2022/09/28 13:26:55;;;;;;;2.65;0.20;;;16.50;99.90;;;;;;4937730;29;20055;-81
2022/09/28 13:29:22;;;;;;;0.88;0.10;;;16.50;99.90;;;;;;4937283;29;20144;-81